Petersburg James A Johnson Airport
PAPG : now visible

Airfield :











YOU CAN JOIN US ON...

 
LOGIN :

Register | Disclaimer

   EN    FR    IT 

 









Legend :    VFR   Marginal VFR   IFR   Intensive IFR   Very Intensive IFR
Visi :
Ceiling :
>= 8 km
>= 3000ft
5 to 8 km
1000 to 3000 ft
1500m to 5 km
500 to 1000 ft
800 to 1500m
200 to 500 ft
< 800m
< 200 ft
Symbols :   Thunderstorms  Fog  Heavy snow  Heavy precipitations  Wind > 20 kt






- Airport Elevation : 111 ft
- IATA code : PSG


PAPG - Petersburg James A Johnson

CURRENT METAR :
  • 271212Z AUTO 11004KT 8SM -RA OVC006 08/07 A2926 RMK AO2 P0001

EXPIRED METARs :
  • 271156Z AUTO 09004KT 9SM -RA OVC004 08/07 A2926 RMK AO2 SLP913 P0003 60013 70024 T00780072 10078 20072 56009
  • 271056Z AUTO 11004KT 8SM -RA OVC004 07/07 A2926 RMK AO2 SLP912 P0003 T00720072
  • 271025Z AUTO 08003KT 9SM -RA OVC006 08/07 A2927 RMK AO2 P0001
  • 270956Z AUTO 11004KT 7SM -RA OVC004 08/07 A2928 RMK AO2 SLP917 P0005 T00780072

TAF PAPG
Valid from the 27 at 12:00 until the 28 at 12:00 UTC


271120Z 2712/2812 VRB03KT 6SM -RA SCT007 OVC015
TEMPO 2712/2715 OVC005
FM271500 VRB02KT 5SM -RA BR SCT007 OVC025
FM280300 VRB03KT 6SM -SHRA BR SCT010 OVC025 AMD LTD TO CLD VIS AND WIND 2712/2715
PAZA FIR / North America



MET'MAP, your aeronautical weather chart ! - Copyright ORBIFLY December 2007 - Disclaimer

ORBIFLY MET'MAP TEAM :

Programming & Development : Alexandra Zaïnal
Concept & original design : Baudouin d'Aumeries
Assistance for programming : Marc-Olivier Méhu
Technical & hardware support : Manuel Goepfert

Contact : metmap@orbifly.com




SOURCES & CREDITS :

   NOAA       Earth
Advisory